Time;durP1;ratioP1;P1;durP2;ratioP2;P2;SDS_P1;SDS_P2;PMS_P1;PMS_P2;Temp;Humidity;BMP_temperature;BMP_pressure;BME280_temperature;BME280_humidity;BME280_pressure;Samples;Min_cycle;Max_cycle;Signal;HPM_P1;HPM_P2
2022/10/06 00:00:33;;;;;;;3.35;1.08;;;;;;;13.40;100.00;68257.16;4945890;29;20044;-88
2022/10/06 00:02:58;;;;;;;4.93;1.50;;;;;;;13.41;100.00;68263.66;4942811;29;21150;-87
2022/10/06 00:05:24;;;;;;;3.63;1.02;;;;;;;13.39;100.00;68255.47;4929971;28;20107;-86
2022/10/06 00:07:49;;;;;;;7.22;1.50;;;;;;;13.36;100.00;68249.94;4933432;29;20047;-86
2022/10/06 00:10:15;;;;;;;5.05;1.88;;;;;;;13.36;100.00;68257.41;4951075;29;20098;-87
2022/10/06 00:12:43;;;;;;;3.60;1.08;;;;;;;13.35;100.00;68248.81;4932158;29;20047;-86
2022/10/06 00:15:10;;;;;;;5.43;1.20;;;;;;;13.33;100.00;68249.22;4950158;29;20047;-86
2022/10/06 00:17:35;;;;;;;4.70;1.20;;;;;;;13.34;100.00;68249.78;4952417;28;20050;-86
2022/10/06 00:20:01;;;;;;;6.68;1.80;;;;;;;13.32;100.00;68245.97;4952561;28;20035;-88
2022/10/06 00:22:33;;;;;;;5.13;1.35;;;;;;;13.33;100.00;68249.22;4952959;29;20039;-87
2022/10/06 00:24:58;;;;;;;8.63;2.25;;;;;;;13.30;100.00;68251.72;4951173;28;20044;-87
2022/10/06 00:27:24;;;;;;;6.95;1.50;;;;;;;13.31;100.00;68247.50;4952770;28;20338;-87
2022/10/06 00:29:49;;;;;;;5.72;2.00;;;;;;;13.29;100.00;68244.66;4950762;29;20046;-87
2022/10/06 00:32:14;;;;;;;5.72;1.60;;;;;;;13.28;100.00;68244.09;4953325;29;20054;-86
2022/10/06 00:34:40;;;;;;;8.10;1.80;;;;;;;13.27;100.00;68242.94;4952538;29;20046;-88
2022/10/06 00:37:05;;;;;;;7.30;1.73;;;;;;;;;;4951617;28;20040;-86
2022/10/06 00:39:30;;;;;;;6.23;1.57;;;;;;;;;;4935476;29;20130;-86
2022/10/06 00:41:56;;;;;;;6.45;1.80;;;;;;;;;;4949327;29;20315;-87
2022/10/06 00:44:21;;;;;;;6.97;2.03;;;;;;;;;;4951417;29;20059;-87
2022/10/06 00:46:51;;;;;;;6.47;1.90;;;;;;;13.23;100.00;68238.38;4952558;29;20354;-88
2022/10/06 00:49:27;;;;;;;7.57;2.28;;;;;;;13.23;100.00;68238.38;4933194;29;20295;-88
2022/10/06 00:52:03;;;;;;;7.20;2.17;;;;;;;13.23;100.00;68238.38;4930037;29;20106;-87
2022/10/06 00:54:29;;;;;;;5.32;2.03;;;;;;;;;;4948208;29;20323;-86
2022/10/06 00:56:55;;;;;;;6.93;2.40;;;;;;;;;;4953284;28;20043;-88
2022/10/06 00:59:20;;;;;;;9.30;2.28;;;;;;;13.22;100.00;68237.25;4951450;28;20134;-87
2022/10/06 01:01:52;;;;;;;8.20;2.00;;;;;;;;;;4952598;29;20106;-87
2022/10/06 01:04:19;;;;;;;7.97;2.40;;;;;;;13.24;100.00;68244.88;4947405;29;20059;-86
2022/10/06 01:06:48;;;;;;;6.60;1.98;;;;;;;;;;4952522;28;20047;-88
2022/10/06 01:09:14;;;;;;;3.90;1.80;;;;;;;;;;4933110;29;20047;-87
2022/10/06 01:11:40;;;;;;;7.25;1.90;;;;;;;;;;4950020;29;20275;-88
2022/10/06 01:14:05;;;;;;;9.40;1.70;;;;;;;13.23;100.00;68237.81;4951707;29;20075;-86
2022/10/06 01:16:36;;;;;;;9.18;2.33;;;;;;;13.23;100.00;68238.38;4933727;29;20055;-87
2022/10/06 01:19:05;;;;;;;6.47;2.10;;;;;;;13.20;100.00;68234.97;4935478;28;20566;-86
2022/10/06 01:21:36;;;;;;;8.30;1.70;;;;;;;13.20;100.00;68234.41;4946490;28;20051;-87
2022/10/06 01:24:03;;;;;;;7.95;2.45;;;;;;;13.19;100.00;68230.59;4949705;28;20043;-87
2022/10/06 01:26:29;;;;;;;7.90;1.90;;;;;;;;;;4934186;29;20137;-87
2022/10/06 01:28:54;;;;;;;8.73;1.88;;;;;;;13.16;100.00;68229.84;4945293;28;20058;-87
2022/10/06 01:31:20;;;;;;;10.50;1.88;;;;;;;13.14;100.00;68228.13;4932830;29;20494;-88
2022/10/06 01:33:49;;;;;;;6.63;1.60;;;;;;;;;;4946313;29;20305;-87
2022/10/06 01:36:14;;;;;;;9.38;2.13;;;;;;;13.10;100.00;68229.50;4934709;29;20051;-87
2022/10/06 01:38:40;;;;;;;10.13;1.80;;;;;;;13.08;100.00;68221.31;4929682;28;20091;-87
2022/10/06 01:41:05;;;;;;;12.45;1.70;;;;;;;13.07;100.00;68220.19;4947031;28;20326;-86
2022/10/06 01:43:30;;;;;;;9.63;2.25;;;;;;;13.03;100.00;68216.22;4933481;29;20040;-87
2022/10/06 01:45:57;;;;;;;7.70;1.48;;;;;;;13.01;100.00;68218.72;4939066;29;20175;-87
2022/10/06 01:48:22;;;;;;;8.95;1.90;;;;;;;;;;4950995;28;20043;-88
2022/10/06 01:50:48;;;;;;;10.98;1.77;;;;;;;;;;4950689;29;20047;-87
2022/10/06 01:53:13;;;;;;;13.73;1.85;;;;;;;12.95;100.00;68211.91;4942495;29;20054;-87
2022/10/06 01:55:38;;;;;;;11.50;1.92;;;;;;;12.94;100.00;68211.31;4950992;29;20042;-88
2022/10/06 01:58:04;;;;;;;10.45;1.85;;;;;;;;;;4936298;28;20130;-87
2022/10/06 02:00:29;;;;;;;6.57;1.25;;;;;;;;;;4946188;29;20642;-89
2022/10/06 02:02:54;;;;;;;6.90;1.47;;;;;;;12.90;100.00;68201.44;4945490;29;20054;-86
2022/10/06 02:05:20;;;;;;;9.07;1.48;;;;;;;12.88;100.00;68199.16;4946069;28;20288;-88
2022/10/06 02:07:45;;;;;;;14.25;1.52;;;;;;;12.87;100.00;68198.59;4946959;28;20044;-87
2022/10/06 02:10:10;;;;;;;8.02;1.40;;;;;;;12.85;100.00;68196.31;4948409;28;20113;-86
2022/10/06 02:12:36;;;;;;;12.85;1.42;;;;;;;12.86;100.00;68202.81;4950404;29;20043;-87
2022/10/06 02:15:01;;;;;;;7.82;1.13;;;;;;;;;;4947114;29;20370;-87
2022/10/06 02:17:28;;;;;;;7.28;1.48;;;;;;;;;;4943207;29;20071;-86
2022/10/06 02:19:53;;;;;;;9.77;1.60;;;;;;;12.81;100.00;68191.78;4949114;28;20046;-87
2022/10/06 02:22:18;;;;;;;9.68;1.85;;;;;;;;;;4948991;28;20043;-86
2022/10/06 02:24:44;;;;;;;7.95;1.40;;;;;;;12.79;100.00;68188.91;4949744;29;20130;-87
2022/10/06 02:27:09;;;;;;;7.30;1.70;;;;;;;12.76;100.00;68186.06;4948695;28;20428;-87
2022/10/06 02:29:34;;;;;;;12.07;1.70;;;;;;;12.75;100.00;68192.97;4948652;29;20063;-87
2022/10/06 02:32:00;;;;;;;8.95;1.45;;;;;;;12.71;100.00;68180.38;4933770;28;20130;-87
2022/10/06 02:34:25;;;;;;;10.82;1.75;;;;;;;;;;4948085;28;20048;-86
2022/10/06 02:36:51;;;;;;;10.20;1.50;;;;;;;;;;4946273;28;20054;-87
2022/10/06 02:39:16;;;;;;;8.05;1.75;;;;;;;;;;4950350;29;20605;-87
2022/10/06 02:41:41;;;;;;;10.38;1.50;;;;;;;12.66;100.00;68174.72;4950186;29;20051;-87
2022/10/06 02:44:07;;;;;;;9.05;2.15;;;;;;;12.64;100.00;68172.44;4951143;29;20047;-87
2022/10/06 02:46:32;;;;;;;11.48;1.92;;;;;;;12.63;100.00;68171.31;4949547;29;20043;-87
2022/10/06 02:48:58;;;;;;;8.75;1.45;;;;;;;12.61;100.00;68174.38;4949955;28;20043;-87
2022/10/06 02:51:23;;;;;;;7.85;1.38;;;;;;;12.59;100.00;68167.31;4948046;29;20509;-86
2022/10/06 02:53:49;;;;;;;14.15;2.13;;;;;;;;;;4931601;29;20042;-86
2022/10/06 02:56:15;;;;;;;11.70;1.95;;;;;;;;;;4949771;29;20047;-85
2022/10/06 02:58:42;;;;;;;9.70;1.40;;;;;;;;;;4949761;28;20051;-86
2022/10/06 03:01:10;;;;;;;12.05;1.95;;;;;;;12.50;100.00;68153.88;4949890;28;20395;-86
2022/10/06 03:03:35;;;;;;;13.32;2.10;;;;;;;;;;4947484;29;20038;-85
2022/10/06 03:06:05;;;;;;;9.13;1.45;;;;;;;;;;4934322;29;20043;-86
2022/10/06 03:08:31;;;;;;;11.05;1.90;;;;;;;;;;4949322;28;20090;-86
2022/10/06 03:11:02;;;;;;;7.28;1.63;;;;;;;12.36;100.00;68149.75;4933175;29;20071;-87
2022/10/06 03:13:27;;;;;;;10.15;1.63;;;;;;;12.35;100.00;68140.06;4950469;29;20604;-87
2022/10/06 03:15:53;;;;;;;7.30;1.85;;;;;;;12.33;100.00;68143.13;4945148;29;20063;-85
2022/10/06 03:18:18;;;;;;;10.45;1.80;;;;;;;12.30;100.00;68132.25;4927608;28;20043;-85
2022/10/06 03:20:46;;;;;;;10.10;1.90;;;;;;;12.29;100.00;68133.81;4944115;28;20102;-87
2022/10/06 03:23:12;;;;;;;10.50;1.85;;;;;;;12.27;100.00;68130.97;4936215;28;20051;-86
2022/10/06 03:25:37;;;;;;;9.88;1.67;;;;;;;12.25;100.00;68134.03;4946758;28;20039;-87
2022/10/06 03:28:03;;;;;;;9.88;1.83;;;;;;;;;;4941435;28;20134;-86
2022/10/06 03:30:28;;;;;;;13.75;1.90;;;;;;;12.21;100.00;68124.16;4939619;28;20047;-86
2022/10/06 03:32:53;;;;;;;8.18;1.70;;;;;;;;;;4939254;29;20108;-85
2022/10/06 03:35:19;;;;;;;10.50;1.63;;;;;;;12.14;100.00;68116.75;4924765;29;20107;-85
2022/10/06 03:37:44;;;;;;;8.52;1.80;;;;;;;12.13;100.00;68121.53;4946490;29;20054;-84
2022/10/06 03:40:10;;;;;;;7.63;1.63;;;;;;;;;;4931889;29;20044;-86
2022/10/06 03:42:35;;;;;;;12.35;1.73;;;;;;;12.11;100.00;68118.69;4944031;28;20498;-85
2022/10/06 03:45:01;;;;;;;12.98;2.28;;;;;;;12.06;100.00;68107.69;4942469;28;20550;-86
2022/10/06 03:47:29;;;;;;;11.48;1.73;;;;;;;12.05;100.00;68112.44;4932257;29;20054;-85
2022/10/06 03:49:55;;;;;;;14.40;1.88;;;;;;;;;;4923863;29;20047;-87
2022/10/06 03:52:20;;;;;;;9.00;1.60;;;;;;;;;;4952130;28;20046;-85
2022/10/06 03:54:45;;;;;;;8.50;1.48;;;;;;;11.96;100.00;68094.75;4935483;28;20287;-86
2022/10/06 03:57:11;;;;;;;9.18;1.98;;;;;;;;;;4945664;28;20055;-85
2022/10/06 03:59:36;;;;;;;8.38;1.50;;;;;;;11.93;100.00;68094.03;4950530;28;20039;-89
2022/10/06 04:02:04;;;;;;;12.52;1.70;;;;;;;11.91;100.00;68091.78;4947769;29;20043;-86
2022/10/06 04:04:29;;;;;;;12.35;1.70;;;;;;;;;;4951630;29;20043;-86
2022/10/06 04:06:58;;;;;;;9.80;1.50;;;;;;;11.88;100.00;68093.69;4931607;29;20525;-86
2022/10/06 04:09:23;;;;;;;8.20;1.92;;;;;;;;;;4920230;29;20186;-86
2022/10/06 04:11:50;;;;;;;13.82;2.05;;;;;;;11.85;100.00;68084.94;4940215;29;20126;-85
2022/10/06 04:14:16;;;;;;;10.00;2.15;;;;;;;11.84;100.00;68083.22;4931577;29;20044;-85
2022/10/06 04:16:47;;;;;;;13.63;2.20;;;;;;;11.81;100.00;68085.16;4948339;29;20091;-87
2022/10/06 04:19:14;;;;;;;11.13;2.42;;;;;;;11.79;100.00;68078.09;4956101;29;20051;-85
2022/10/06 04:21:42;;;;;;;15.75;2.35;;;;;;;11.78;100.00;68076.41;4951851;28;20119;-86
2022/10/06 04:24:09;;;;;;;8.65;1.92;;;;;;;;;;4957229;29;20051;-86
2022/10/06 04:26:40;;;;;;;12.40;2.17;;;;;;;11.77;100.00;68083.84;4955635;29;20043;-84
2022/10/06 04:29:05;;;;;;;10.35;2.35;;;;;;;;;;4938888;29;20051;-85
2022/10/06 04:31:35;;;;;;;9.55;2.20;;;;;;;11.76;100.00;68074.69;4954691;29;20047;-86
2022/10/06 04:34:01;;;;;;;9.30;1.85;;;;;;;;;;4955549;29;20054;-87
2022/10/06 04:36:38;;;;;;;14.95;2.50;;;;;;;11.74;100.00;68073.00;4950539;29;20051;-87
2022/10/06 04:39:07;;;;;;;9.77;2.00;;;;;;;;;;4956698;28;20091;-86
2022/10/06 04:41:33;;;;;;;10.82;1.92;;;;;;;;;;4950347;28;20065;-85
2022/10/06 04:43:59;;;;;;;11.35;2.17;;;;;;;;;;4954273;28;20579;-88
2022/10/06 04:46:29;;;;;;;7.90;2.10;;;;;;;11.68;100.00;68070.94;4953976;29;20107;-85
2022/10/06 04:48:55;;;;;;;9.65;1.63;;;;;;;11.66;100.00;68071.34;4942286;28;20082;-85
2022/10/06 04:51:23;;;;;;;11.55;1.65;;;;;;;11.66;100.00;68068.69;4951558;29;20130;-85
2022/10/06 04:53:48;;;;;;;13.13;2.20;;;;;;;11.64;100.00;68066.97;4952904;29;20039;-84
2022/10/06 04:56:20;;;;;;;8.65;1.55;;;;;;;11.61;100.00;68063.00;4958311;29;20078;-86
2022/10/06 04:58:47;;;;;;;9.50;1.85;;;;;;;11.58;100.00;68054.81;4937596;29;20122;-86
2022/10/06 05:01:17;;;;;;;12.98;1.52;;;;;;;11.58;100.00;68062.25;4952799;28;20073;-86
2022/10/06 05:03:44;;;;;;;9.93;1.90;;;;;;;11.57;100.00;68053.69;4951517;29;20070;-86
2022/10/06 05:06:29;;;;;;;8.52;1.67;;;;;;;11.55;100.00;68056.19;4928734;29;20048;-87
2022/10/06 05:08:59;;;;;;;10.90;1.80;;;;;;;;;;4950541;28;20043;-86
2022/10/06 05:11:24;;;;;;;9.88;1.80;;;;;;;11.50;100.00;68051.06;4952721;29;20051;-86
2022/10/06 05:13:53;;;;;;;11.05;2.15;;;;;;;11.48;100.00;68043.47;4928445;28;20054;-85
2022/10/06 05:16:19;;;;;;;8.13;1.65;;;;;;;11.46;100.00;68046.53;4946040;28;20127;-86
2022/10/06 05:18:45;;;;;;;13.93;1.98;;;;;;;11.45;100.00;68040.63;4949987;28;20482;-86
2022/10/06 05:21:13;;;;;;;10.85;1.77;;;;;;;11.44;100.00;68044.25;4953053;28;20047;-88
2022/10/06 05:23:39;;;;;;;13.02;2.25;;;;;;;;;;4934856;29;20506;-87
2022/10/06 05:26:06;;;;;;;9.52;2.17;;;;;;;11.39;100.00;68039.13;4951912;29;20499;-87
2022/10/06 05:28:31;;;;;;;11.95;2.08;;;;;;;;;;4951675;28;20102;-86
2022/10/06 05:31:02;;;;;;;14.68;1.92;;;;;;;11.36;100.00;68035.72;4952963;29;20395;-87
2022/10/06 05:33:31;;;;;;;8.95;1.52;;;;;;;11.35;100.00;68029.28;4933819;29;20063;-84
2022/10/06 05:36:08;;;;;;;12.07;2.13;;;;;;;11.32;100.00;68025.88;4950324;29;20052;-86
2022/10/06 05:38:33;;;;;;;9.25;1.60;;;;;;;11.30;100.00;68024.16;4933580;29;20039;-87
2022/10/06 05:41:19;;;;;;;12.23;2.53;;;;;;;;;;4951859;29;20042;-86
2022/10/06 05:43:45;;;;;;;10.60;1.85;;;;;;;;;;4950898;29;20135;-86
2022/10/06 05:46:16;;;;;;;10.55;2.40;;;;;;;;;;4952400;29;20107;-85
2022/10/06 05:48:44;;;;;;;9.38;1.88;;;;;;;11.24;100.00;68022.69;4951330;28;20089;-88
2022/10/06 05:51:09;;;;;;;12.35;2.42;;;;;;;11.21;100.00;68013.94;4951883;29;20047;-87
2022/10/06 05:53:36;;;;;;;8.85;1.90;;;;;;;11.20;100.00;68017.56;4934749;29;20133;-86
2022/10/06 05:56:13;;;;;;;10.50;1.92;;;;;;;11.19;100.00;68011.69;4950342;29;20050;-85
2022/10/06 05:58:40;;;;;;;10.00;1.80;;;;;;;11.15;100.00;68011.91;4947901;28;20048;-86
2022/10/06 06:01:13;;;;;;;10.60;2.00;;;;;;;11.13;100.00;68004.84;4946305;29;20043;-89
2022/10/06 06:03:41;;;;;;;13.70;1.98;;;;;;;11.13;100.00;68004.84;4942600;29;20692;-87
2022/10/06 06:06:24;;;;;;;13.73;2.90;;;;;;;;;;4947651;29;20183;-90
2022/10/06 06:08:51;;;;;;;14.70;2.33;;;;;;;;;;4949107;29;20043;-90
2022/10/06 06:11:16;;;;;;;9.18;1.98;;;;;;;11.10;100.00;68000.88;4948350;28;20159;-87
2022/10/06 06:13:42;;;;;;;13.15;2.28;;;;;;;11.10;100.00;68006.78;4924995;29;20047;-86
2022/10/06 06:16:12;;;;;;;11.38;2.05;;;;;;;;;;4949281;29;20051;-86
2022/10/06 06:18:37;;;;;;;15.52;2.80;;;;;;;11.12;100.00;68003.16;4930523;29;20510;-86
2022/10/06 06:21:03;;;;;;;14.50;2.53;;;;;;;;;;4948950;29;20076;-86
2022/10/06 06:23:35;;;;;;;13.63;3.05;;;;;;;11.13;100.00;68001.63;4948168;28;20043;-88
2022/10/06 06:26:03;;;;;;;10.85;2.05;;;;;;;11.12;100.00;68009.06;4948669;28;20558;-87
2022/10/06 06:28:28;;;;;;;13.23;2.53;;;;;;;;;;4927711;29;20051;-86
2022/10/06 06:31:01;;;;;;;15.30;2.67;;;;;;;;;;4945575;29;20062;-86
2022/10/06 06:33:28;;;;;;;9.32;1.98;;;;;;;11.18;100.00;68009.97;4947538;29;20039;-89
2022/10/06 06:35:53;;;;;;;10.90;2.00;;;;;;;;;;4946243;28;21593;-86
2022/10/06 06:38:18;;;;;;;18.53;2.40;;;;;;;;;;4947478;28;20047;-86
2022/10/06 06:40:44;;;;;;;11.60;2.55;;;;;;;11.20;100.00;68017.56;4948098;29;20295;-89
2022/10/06 06:43:11;;;;;;;10.80;2.00;;;;;;;11.23;100.00;68020.97;4944490;29;20043;-86
2022/10/06 06:45:37;;;;;;;8.77;2.00;;;;;;;11.25;100.00;68017.94;4949094;29;20054;-86
2022/10/06 06:48:04;;;;;;;15.52;2.30;;;;;;;;;;4952530;28;20039;-87
2022/10/06 06:50:30;;;;;;;17.13;3.17;;;;;;;;;;4956020;29;20054;-87
2022/10/06 06:52:55;;;;;;;12.55;2.40;;;;;;;;;;4951952;28;20060;-87
2022/10/06 06:55:21;;;;;;;11.50;1.65;;;;;;;;;;4954757;28;20070;-90
2022/10/06 06:57:48;;;;;;;11.52;2.38;;;;;;;11.39;100.00;68039.13;4950472;28;20090;-86
2022/10/06 07:00:15;;;;;;;13.70;2.20;;;;;;;11.40;100.00;68040.28;4947990;28;20044;-86
2022/10/06 07:02:41;;;;;;;15.68;2.60;;;;;;;11.45;100.00;68040.06;4948789;28;20039;-87
2022/10/06 07:05:06;;;;;;;14.68;1.90;;;;;;;;;;4935458;29;20374;-85
2022/10/06 07:07:32;;;;;;;12.48;2.70;;;;;;;11.53;100.00;68054.47;4935082;29;20454;-88
2022/10/06 07:09:57;;;;;;;13.55;2.20;;;;;;;11.57;100.00;68059.03;4925072;29;20138;-90
2022/10/06 07:12:24;;;;;;;14.13;2.33;;;;;;;11.58;100.00;68054.25;4946813;28;20506;-87
2022/10/06 07:25:44;;;;;;;11.60;2.30;;;;;;;11.69;100.00;68066.75;4947493;29;20046;-87
2022/10/06 07:28:11;;;;;;;12.63;2.53;;;;;;;11.72;100.00;68076.06;4947911;29;20044;-89
2022/10/06 07:30:37;;;;;;;13.18;2.42;;;;;;;;;;4945238;28;20102;-89
2022/10/06 07:33:03;;;;;;;12.25;2.90;;;;;;;11.81;100.00;68085.72;4948402;28;20482;-87
2022/10/06 07:35:29;;;;;;;11.73;2.33;;;;;;;;;;4946248;28;20050;-86
2022/10/06 07:37:54;;;;;;;18.23;2.70;;;;;;;;;;4947436;28;20047;-87
2022/10/06 07:40:19;;;;;;;11.38;2.75;;;;;;;;;;4946395;29;20047;-87
2022/10/06 07:42:47;;;;;;;10.95;2.47;;;;;;;;;;4944781;28;20035;-88
2022/10/06 07:45:38;;;;;;;12.77;2.67;;;;;;;12.01;99.82;68107.88;4946424;28;20050;-87
2022/10/06 07:48:23;;;;;;;12.50;2.28;;;;;;;;;;4927655;29;20579;-86
2022/10/06 07:50:51;;;;;;;18.63;3.08;;;;;;;12.07;99.02;68109.38;4946593;28;20039;-88
2022/10/06 07:53:17;;;;;;;13.90;2.80;;;;;;;12.13;99.37;68115.63;4947935;29;20130;-86
2022/10/06 07:55:45;;;;;;;13.13;3.22;;;;;;;;;;4947617;29;20503;-86
2022/10/06 07:58:18;;;;;;;9.73;2.30;;;;;;;12.19;98.04;68128.34;4946921;29;20082;-87
2022/10/06 08:00:47;;;;;;;13.95;3.08;;;;;;;12.25;97.98;68137.25;4927990;29;20119;-86
2022/10/06 08:03:16;;;;;;;17.65;3.05;;;;;;;12.29;97.62;68139.16;4940996;28;20083;-89
2022/10/06 08:05:42;;;;;;;11.73;2.22;;;;;;;;;;4931057;29;20051;-86
2022/10/06 08:08:07;;;;;;;12.60;2.33;;;;;;;12.36;96.98;68141.19;4947857;29;20134;-86
2022/10/06 08:10:32;;;;;;;10.45;2.20;;;;;;;;;;4930248;29;20130;-86
2022/10/06 08:12:58;;;;;;;15.55;2.75;;;;;;;12.47;96.63;68153.13;4935938;29;20063;-89
2022/10/06 08:15:23;;;;;;;14.75;2.65;;;;;;;12.49;95.82;68160.75;4945833;28;20044;-86
2022/10/06 08:17:48;;;;;;;11.75;2.47;;;;;;;12.53;95.75;68165.28;4948625;29;20051;-85
2022/10/06 08:20:17;;;;;;;11.25;2.35;;;;;;;12.52;94.86;68156.13;4958483;29;20119;-86
2022/10/06 08:22:42;;;;;;;14.20;2.67;;;;;;;12.53;94.61;68159.94;4950599;29;20055;-86
2022/10/06 08:25:08;;;;;;;15.43;2.47;;;;;;;12.59;94.99;68172.09;4948074;29;20047;-86
2022/10/06 08:27:35;;;;;;;14.05;2.80;;;;;;;12.60;94.58;68173.22;4929106;29;20107;-86
2022/10/06 08:30:01;;;;;;;11.52;2.58;;;;;;;;;;4943725;29;20078;-87
2022/10/06 08:32:26;;;;;;;14.88;2.63;;;;;;;12.70;94.07;68178.69;4946273;28;20047;-87
2022/10/06 08:34:51;;;;;;;13.02;2.78;;;;;;;12.75;93.60;68184.94;4930233;29;20051;-87
2022/10/06 08:37:26;;;;;;;11.75;2.90;;;;;;;;;;4948851;28;20050;-88
2022/10/06 08:39:55;;;;;;;12.68;3.13;;;;;;;12.82;92.82;68192.34;4950842;29;20406;-87
2022/10/06 08:42:36;;;;;;;13.32;2.55;;;;;;;12.83;92.34;68199.38;4914406;29;20043;-87
2022/10/06 08:45:03;;;;;;;13.10;3.20;;;;;;;;;;4926393;29;20050;-86
2022/10/06 08:47:34;;;;;;;10.90;2.60;;;;;;;12.96;92.29;68205.56;4953741;28;20031;-87
2022/10/06 08:50:02;;;;;;;13.02;2.38;;;;;;;13.03;92.39;68213.53;4970498;28;20042;-91
2022/10/06 08:52:28;;;;;;;14.98;2.80;;;;;;;;;;4976094;28;20102;-93
2022/10/06 08:55:13;;;;;;;13.05;2.60;;;;;;;;;;4976171;28;20059;-93
2022/10/06 08:57:51;;;;;;;13.98;3.20;;;;;;;13.16;90.68;68230.41;4974010;28;20051;-91
2022/10/06 09:00:17;;;;;;;11.43;2.05;;;;;;;;;;4978163;28;20035;-92
2022/10/06 09:02:44;;;;;;;16.23;2.67;;;;;;;;;;4974125;28;20038;-92
2022/10/06 09:05:14;;;;;;;15.13;2.85;;;;;;;13.30;88.82;68246.38;4968090;29;20524;-88
2022/10/06 09:08:11;;;;;;;13.15;2.10;;;;;;;13.34;88.32;68255.13;4951159;28;20062;-86
2022/10/06 09:10:57;;;;;;;17.65;2.50;;;;;;;13.40;88.47;68256.59;4948642;28;20049;-88
2022/10/06 09:13:27;;;;;;;14.02;2.30;;;;;;;;;;4943612;28;20557;-87
2022/10/06 09:15:58;;;;;;;16.65;2.33;;;;;;;13.50;87.56;68267.97;4950443;29;21625;-88
2022/10/06 09:18:34;;;;;;;13.75;2.17;;;;;;;;;;4924287;29;20102;-87
2022/10/06 09:21:02;;;;;;;15.88;2.63;;;;;;;13.64;87.31;68280.66;4950987;29;20051;-89
2022/10/06 09:23:49;;;;;;;13.98;2.55;;;;;;;13.70;87.18;68290.72;4950940;29;20529;-88
2022/10/06 09:26:14;;;;;;;9.93;2.30;;;;;;;13.79;86.40;68299.84;4921784;29;20099;-88
2022/10/06 09:28:39;;;;;;;12.10;2.10;;;;;;;;;;4949162;28;20138;-87
2022/10/06 09:31:24;;;;;;;12.90;2.10;;;;;;;13.85;85.42;68307.22;4946957;28;20048;-86
2022/10/06 09:33:54;;;;;;;13.77;2.10;;;;;;;13.90;85.33;68317.69;4933879;29;20054;-88
2022/10/06 09:36:19;;;;;;;12.25;2.45;;;;;;;13.96;85.04;68319.75;4937551;29;20051;-87
2022/10/06 09:38:54;;;;;;;17.92;2.42;;;;;;;14.05;84.52;68334.75;4932445;29;20486;-87
2022/10/06 09:41:30;;;;;;;11.25;1.90;;;;;;;;;;4931951;29;20035;-87
2022/10/06 09:44:03;;;;;;;13.05;2.55;;;;;;;14.13;82.86;68335.28;4933675;28;20049;-87
2022/10/06 09:46:29;;;;;;;10.30;1.70;;;;;;;14.16;81.63;68347.28;4949397;29;20060;-86
2022/10/06 09:49:17;;;;;;;11.45;2.10;;;;;;;;;;4948144;28;20523;-87
2022/10/06 09:52:07;;;;;;;14.70;1.83;;;;;;;14.27;80.02;68351.22;4940034;28;20047;-87
2022/10/06 09:54:33;;;;;;;9.88;1.70;;;;;;;14.27;79.07;68353.31;4947211;29;20078;-87
2022/10/06 09:57:07;;;;;;;10.05;2.10;;;;;;;14.29;79.54;68356.16;4933665;29;20051;-87
2022/10/06 09:59:36;;;;;;;8.95;1.50;;;;;;;14.39;79.72;68366.97;4949613;28;20114;-88
2022/10/06 10:02:03;;;;;;;11.18;2.30;;;;;;;14.41;79.05;68366.56;4942872;28;20050;-87
2022/10/06 10:04:34;;;;;;;8.50;1.92;;;;;;;;;;4950535;29;20051;-85
2022/10/06 10:07:19;;;;;;;7.53;1.88;;;;;;;;;;4946453;28;20048;-87
2022/10/06 10:09:44;;;;;;;11.90;2.05;;;;;;;;;;4945883;28;20051;-87
2022/10/06 10:12:23;;;;;;;8.98;2.10;;;;;;;;;;4951782;29;20130;-87
2022/10/06 10:14:48;;;;;;;;;;;;;;;14.71;77.72;68402.28;4942433;29;20039;-87
2022/10/06 10:17:31;;;;;;;10.77;1.90;;;;;;;14.68;77.95;68396.19;4951332;28;20451;-87
2022/10/06 10:19:59;;;;;;;10.25;1.50;;;;;;;;;;4945468;28;20053;-87
2022/10/06 10:22:54;;;;;;;7.93;1.90;;;;;;;;;;4936862;28;20338;-90
2022/10/06 10:25:41;;;;;;;6.25;1.45;;;;;;;14.88;77.05;68418.97;4931043;28;20108;-90
2022/10/06 10:28:18;;;;;;;9.93;1.50;;;;;;;;;;4945177;28;20476;-87
2022/10/06 10:31:05;;;;;;;10.85;1.35;;;;;;;14.71;75.58;68402.84;4949114;29;20598;-89
2022/10/06 10:33:45;;;;;;;9.43;1.40;;;;;;;;;;4947113;29;20080;-88
2022/10/06 10:36:12;;;;;;;10.00;1.95;;;;;;;;;;4947778;29;20047;-88
2022/10/06 10:38:41;;;;;;;8.80;1.30;;;;;;;14.95;75.65;68434.97;4930859;29;20066;-87
2022/10/06 10:41:15;;;;;;;7.82;1.67;;;;;;;15.03;74.63;68438.72;4949821;29;20051;-87
2022/10/06 10:44:02;;;;;;;8.75;1.83;;;;;;;15.18;74.70;68452.53;4941415;29;20047;-87
2022/10/06 10:46:29;;;;;;;8.48;1.40;;;;;;;;;;4948294;29;20074;-88
2022/10/06 10:49:18;;;;;;;7.93;1.30;;;;;;;;;;4950084;29;20410;-87
2022/10/06 10:51:52;;;;;;;14.73;1.92;;;;;;;;;;4938647;29;20043;-88
2022/10/06 10:54:26;;;;;;;6.30;1.33;;;;;;;15.44;72.96;68483.69;4948255;28;20601;-86
2022/10/06 10:56:52;;;;;;;8.73;1.85;;;;;;;;;;4949633;28;20470;-88
2022/10/06 10:59:42;;;;;;;7.40;1.75;;;;;;;15.55;71.32;68496.81;4932464;29;20135;-88
2022/10/06 11:02:11;;;;;;;8.13;1.10;;;;;;;;;;4912302;29;20489;-88
2022/10/06 11:17:44;;;;;;;10.13;1.65;;;;;;;;;;5976600;22;20043;-86
2022/10/06 11:20:16;;;;;;;4.80;1.40;;;;;;;;;;4957918;28;20090;-81
2022/10/06 11:23:14;;;;;;;6.40;1.35;;;;;;;15.92;69.13;68537.84;4989592;28;20054;-83
2022/10/06 11:25:48;;;;;;;8.43;1.45;;;;;;;15.99;67.55;68550.63;4988996;28;20050;-80
2022/10/06 11:28:16;;;;;;;8.63;1.35;;;;;;;;;;4990017;28;20194;-82
2022/10/06 11:31:01;;;;;;;6.10;1.30;;;;;;;;;;4983507;28;20050;-82
2022/10/06 11:33:44;;;;;;;9.27;1.20;;;;;;;;;;4987290;28;20067;-83
2022/10/06 11:36:13;;;;;;;9.27;1.58;;;;;;;;;;4964331;28;20051;-82
2022/10/06 11:38:43;;;;;;;9.20;1.67;;;;;;;16.38;67.08;68588.56;4983525;28;20057;-83
2022/10/06 11:41:24;;;;;;;5.15;1.30;;;;;;;16.37;65.17;68587.41;4984853;28;20073;-83
2022/10/06 11:44:04;;;;;;;10.32;1.50;;;;;;;16.39;66.30;68590.28;4971183;28;20038;-85
2022/10/06 11:46:42;;;;;;;8.27;2.25;;;;;;;16.44;65.66;68595.41;4968237;28;20453;-83
2022/10/06 11:49:30;;;;;;;6.75;1.75;;;;;;;16.55;65.77;68607.38;4969386;28;20303;-81
2022/10/06 11:52:04;;;;;;;8.00;1.58;;;;;;;16.55;63.27;68607.94;4972835;28;20042;-83
2022/10/06 11:54:39;;;;;;;8.95;1.33;;;;;;;16.65;65.71;68618.78;4976124;28;20608;-82
2022/10/06 11:57:22;;;;;;;5.72;1.02;;;;;;;16.71;64.45;68625.63;4964934;28;20102;-82
2022/10/06 11:59:49;;;;;;;7.45;1.88;;;;;;;16.82;65.95;68637.63;4959617;28;20055;-82
2022/10/06 12:02:35;;;;;;;7.60;1.60;;;;;;;16.91;63.51;68647.88;4966047;28;20238;-83
2022/10/06 12:05:09;;;;;;;6.57;1.40;;;;;;;;;;4972193;28;20070;-83
2022/10/06 12:07:52;;;;;;;6.30;1.95;;;;;;;;;;4957170;28;20043;-81
2022/10/06 12:10:27;;;;;;;5.40;1.33;;;;;;;16.90;62.07;68647.31;4976656;28;20473;-82
2022/10/06 12:13:23;;;;;;;5.10;1.20;;;;;;;16.90;62.79;68644.06;4961218;28;20047;-81
2022/10/06 12:15:55;;;;;;;6.22;1.85;;;;;;;16.99;63.46;68656.44;4979232;28;20038;-83
2022/10/06 12:18:29;;;;;;;9.27;1.17;;;;;;;17.13;63.69;68672.97;4973622;28;20051;-83
2022/10/06 12:20:58;;;;;;;6.65;1.10;;;;;;;;;;4968807;28;20051;-84
2022/10/06 12:23:28;;;;;;;7.60;1.35;;;;;;;17.12;59.03;68665.91;4977099;28;20485;-83
2022/10/06 12:26:04;;;;;;;10.13;1.48;;;;;;;17.24;60.07;68684.38;4974136;28;20329;-82
2022/10/06 12:28:39;;;;;;;8.00;1.38;;;;;;;;;;4977152;28;20074;-83
2022/10/06 12:31:13;;;;;;;6.63;1.33;;;;;;;17.45;60.91;68705.66;4938705;28;20043;-81
2022/10/06 12:33:41;;;;;;;7.57;1.60;;;;;;;17.65;59.89;68727.34;4975213;28;20510;-85
2022/10/06 12:36:28;;;;;;;9.32;1.65;;;;;;;17.66;57.77;68729.03;4975928;28;20071;-81
2022/10/06 12:39:05;;;;;;;7.93;1.38;;;;;;;17.73;57.28;68736.47;4972848;28;20047;-81
2022/10/06 12:42:05;;;;;;;7.93;1.48;;;;;;;17.83;58.73;68750.00;4960682;28;20066;-85
2022/10/06 12:44:37;;;;;;;6.25;1.23;;;;;;;17.78;57.16;68744.88;4947410;28;20090;-83
2022/10/06 12:47:09;;;;;;;9.43;1.65;;;;;;;17.84;57.79;68745.75;4981277;28;20045;-84
2022/10/06 12:49:42;;;;;;;8.00;1.60;;;;;;;17.96;57.43;68764.84;4957076;28;20035;-85
2022/10/06 12:52:27;;;;;;;6.20;1.15;;;;;;;18.12;57.22;68783.09;4943068;28;20053;-82
2022/10/06 12:55:05;;;;;;;12.02;1.70;;;;;;;18.14;56.44;68780.00;4937940;28;20046;-82
2022/10/06 12:57:43;;;;;;;8.40;1.40;;;;;;;18.09;57.66;68779.69;4972056;28;20418;-84